Time;durP1;ratioP1;P1;durP2;ratioP2;P2;SDS_P1;SDS_P2;PMS_P1;PMS_P2;Temp;Humidity;BMP_temperature;BMP_pressure;BME280_temperature;BME280_humidity;BME280_pressure;Samples;Min_cycle;Max_cycle;Signal;HPM_P1;HPM_P2
2022/08/15 00:00:54;;;;;;;6.40;3.20;;;;;;;22.04;66.82;100664.81;5115493;28;20245;-81
2022/08/15 00:03:32;;;;;;;8.23;3.20;;;;;;;21.99;67.04;100663.25;5115318;28;20175;-82
2022/08/15 00:06:03;;;;;;;5.90;3.47;;;;;;;21.96;67.02;100658.09;5081502;28;20207;-81
2022/08/15 00:08:31;;;;;;;4.63;3.10;;;;;;;21.94;67.19;100665.13;5117300;28;20172;-80
2022/08/15 00:11:04;;;;;;;5.43;3.40;;;;;;;21.90;67.74;100663.50;5117008;28;20179;-81
2022/08/15 00:13:30;;;;;;;4.67;3.10;;;;;;;21.80;67.89;100657.72;5117522;28;20175;-82
2022/08/15 00:15:56;;;;;;;5.50;2.90;;;;;;;21.73;68.20;100657.91;5116198;28;20180;-83
2022/08/15 00:18:25;;;;;;;5.40;3.50;;;;;;;21.70;68.64;100652.81;5120545;28;20668;-81
2022/08/15 00:20:52;;;;;;;5.07;3.20;;;;;;;21.68;68.42;100647.59;5102079;28;20723;-83
2022/08/15 00:23:22;;;;;;;7.13;3.57;;;;;;;21.62;69.17;100654.75;5103358;28;20187;-82
2022/08/15 00:25:50;;;;;;;4.63;3.63;;;;;;;21.59;68.75;100639.19;5119682;28;20218;-81
2022/08/15 00:28:16;;;;;;;6.80;3.50;;;;;;;21.49;69.55;100642.94;5120577;28;20652;-82
2022/08/15 00:30:44;;;;;;;4.57;3.37;;;;;;;21.44;69.35;100639.63;5085297;28;20187;-79
2022/08/15 00:33:11;;;;;;;6.57;3.43;;;;;;;21.31;70.19;100639.13;5084678;28;20184;-81
2022/08/15 00:35:40;;;;;;;7.90;3.37;;;;;;;21.26;70.24;100635.78;5119504;28;20168;-82
2022/08/15 00:38:07;;;;;;;8.50;3.43;;;;;;;21.24;70.64;100628.91;5102468;28;20203;-81
2022/08/15 00:41:39;;;;;;;4.50;3.40;;;;;;;21.16;70.77;100628.25;5100415;28;20215;-82
2022/08/15 00:43:18;;;;;;;6.60;3.90;;;;;;;21.14;70.94;100630.91;5100030;28;20186;-82
2022/08/15 00:45:44;;;;;;;5.90;3.57;;;;;;;21.19;70.79;100626.41;5099369;28;20287;-81
2022/08/15 00:50:55;;;;;;;6.23;3.60;;;;;;;21.13;71.50;100617.91;5101952;28;20246;-83
2022/08/15 00:53:20;;;;;;;7.50;3.90;;;;;;;21.08;71.63;100623.25;5082095;28;20184;-81
2022/08/15 00:55:46;;;;;;;5.33;3.73;;;;;;;21.09;71.48;100622.34;5117159;28;20271;-82
2022/08/15 00:58:12;;;;;;;5.00;3.60;;;;;;;21.09;71.24;100624.13;5117628;28;20180;-81
2022/08/15 01:00:43;;;;;;;5.23;3.43;;;;;;;21.04;71.90;100620.75;5099117;28;20646;-80
2022/08/15 01:03:13;;;;;;;8.60;3.57;;;;;;;20.99;71.82;100615.69;5101165;28;20184;-80
2022/08/15 01:05:40;;;;;;;5.27;3.57;;;;;;;21.00;71.78;100625.19;5099773;28;20590;-81
2022/08/15 01:08:05;;;;;;;4.13;3.73;;;;;;;20.94;72.23;100617.56;5117483;28;20259;-77
2022/08/15 01:10:32;;;;;;;5.03;3.73;;;;;;;20.93;71.32;100613.25;5098274;28;20229;-79
2022/08/15 01:12:58;;;;;;;8.07;4.20;;;;;;;20.89;72.35;100609.00;5116468;28;20197;-80
2022/08/15 01:15:24;;;;;;;7.20;4.17;;;;;;;20.86;72.54;100608.22;5117636;28;20184;-80
2022/08/15 01:17:50;;;;;;;5.87;4.03;;;;;;;20.83;72.71;100606.53;5100460;28;20210;-80
2022/08/15 01:20:28;;;;;;;6.00;3.97;;;;;;;20.79;72.63;100610.13;5100604;28;20192;-81
2022/08/15 01:23:18;;;;;;;6.10;3.80;;;;;;;20.78;72.84;100611.00;5082964;28;20183;-78
2022/08/15 01:26:04;;;;;;;7.47;3.80;;;;;;;20.72;72.62;100602.47;5099182;28;20204;-80
2022/08/15 01:28:35;;;;;;;6.13;3.60;;;;;;;20.72;73.21;100608.56;5117814;28;20192;-80
2022/08/15 01:31:08;;;;;;;7.83;3.67;;;;;;;20.70;73.57;100612.97;5117066;28;20183;-80
2022/08/15 01:33:41;;;;;;;6.17;3.53;;;;;;;20.65;73.60;100604.41;5101258;28;20213;-80
2022/08/15 01:36:08;;;;;;;11.70;4.20;;;;;;;20.63;73.86;100590.56;5116905;28;20292;-80
2022/08/15 01:38:47;;;;;;;6.43;3.33;;;;;;;20.61;73.80;100592.38;5118567;28;20215;-81
2022/08/15 01:41:31;;;;;;;5.17;3.70;;;;;;;20.59;73.93;100582.91;5100342;28;20240;-81
2022/08/15 01:44:13;;;;;;;8.10;3.77;;;;;;;20.54;74.33;100580.41;5100628;28;20284;-82
2022/08/15 01:46:47;;;;;;;9.00;4.00;;;;;;;20.54;74.26;100579.56;5102052;28;20220;-82
2022/08/15 01:49:24;;;;;;;4.87;3.73;;;;;;;20.52;74.34;100586.53;5083008;28;20187;-81
2022/08/15 01:51:54;;;;;;;5.17;3.83;;;;;;;20.39;75.26;100578.19;5118021;28;20301;-81
2022/08/15 01:54:23;;;;;;;6.50;3.60;;;;;;;20.35;75.26;100575.69;5100033;28;20207;-82
2022/08/15 01:56:49;;;;;;;6.57;4.37;;;;;;;20.32;76.06;100565.38;5099282;28;20584;-82
2022/08/15 01:59:19;;;;;;;8.97;4.50;;;;;;;20.24;76.07;100567.28;5099190;28;20180;-81
2022/08/15 02:01:55;;;;;;;10.20;4.20;;;;;;;20.19;75.52;100564.81;5116413;28;20245;-81
2022/08/15 02:04:33;;;;;;;5.57;3.90;;;;;;;20.16;76.15;100571.81;5102506;28;20171;-80
2022/08/15 02:07:02;;;;;;;5.00;4.10;;;;;;;19.99;76.17;100574.78;5100583;28;20585;-82
2022/08/15 02:09:29;;;;;;;5.37;4.07;;;;;;;19.92;76.58;100573.22;5102732;28;20186;-82
2022/08/15 02:12:00;;;;;;;11.07;4.00;;;;;;;19.89;76.96;100570.69;5099509;28;20184;-80
2022/08/15 02:14:27;;;;;;;5.40;4.07;;;;;;;19.85;77.23;100569.03;5086929;28;20176;-82
2022/08/15 02:16:53;;;;;;;7.10;4.17;;;;;;;19.80;77.42;100562.25;5081128;28;20633;-82
2022/08/15 02:19:18;;;;;;;6.47;4.33;;;;;;;19.81;77.21;100564.81;5095070;28;20184;-82
2022/08/15 02:21:46;;;;;;;8.00;4.30;;;;;;;19.76;78.17;100558.03;5111915;28;20210;-82
2022/08/15 02:24:17;;;;;;;10.07;3.97;;;;;;;19.64;78.35;100568.66;5084705;28;20184;-81
2022/08/15 02:26:43;;;;;;;5.87;4.47;;;;;;;19.56;78.36;100573.16;5101367;28;20230;-81
2022/08/15 02:29:09;;;;;;;6.63;4.00;;;;;;;19.54;78.78;100569.75;5120399;28;20204;-81
2022/08/15 02:31:37;;;;;;;6.23;4.30;;;;;;;19.48;79.07;100570.75;5100997;28;20187;-82
2022/08/15 02:34:05;;;;;;;7.00;4.20;;;;;;;19.47;79.07;100575.97;5100722;28;20193;-82
2022/08/15 02:36:34;;;;;;;6.27;4.23;;;;;;;19.42;79.34;100568.28;5100279;28;20196;-80
2022/08/15 02:39:08;;;;;;;5.70;4.20;;;;;;;19.33;79.24;100567.59;5106181;28;21066;-81
2022/08/15 02:41:42;;;;;;;8.67;4.00;;;;;;;19.32;79.59;100566.78;5100797;28;20194;-80
2022/08/15 02:44:08;;;;;;;6.50;4.40;;;;;;;19.31;79.59;100569.38;5100376;28;20179;-81
2022/08/15 02:46:37;;;;;;;4.93;4.37;;;;;;;19.25;80.33;100569.53;5100543;28;20222;-82
2022/08/15 02:49:11;;;;;;;6.70;4.53;;;;;;;19.23;81.13;100568.69;5084310;28;20233;-81
2022/08/15 02:51:40;;;;;;;7.47;4.13;;;;;;;19.24;81.10;100568.66;5083843;28;20186;-80
2022/08/15 02:54:07;;;;;;;5.60;4.23;;;;;;;19.28;80.78;100572.91;5099660;28;20251;-80
2022/08/15 02:56:33;;;;;;;8.13;5.33;;;;;;;19.25;80.90;100569.53;5083081;28;20199;-80
2022/08/15 02:59:01;;;;;;;5.57;4.37;;;;;;;19.20;80.81;100571.31;5120174;28;20194;-80
2022/08/15 03:01:28;;;;;;;7.00;4.67;;;;;;;19.22;80.55;100567.84;5102214;28;20199;-82
2022/08/15 03:03:56;;;;;;;5.77;4.67;;;;;;;19.21;80.33;100579.06;5102255;28;20189;-82
2022/08/15 03:06:30;;;;;;;8.33;5.07;;;;;;;19.25;80.36;100567.75;5119864;28;20227;-82
2022/08/15 03:09:00;;;;;;;5.70;4.70;;;;;;;19.29;80.77;100571.16;5121431;28;20672;-79
2022/08/15 03:11:27;;;;;;;5.40;4.90;;;;;;;19.28;80.90;100565.13;5105432;28;20210;-81
2022/08/15 03:13:53;;;;;;;6.03;4.93;;;;;;;19.38;80.56;100566.63;5105090;28;20179;-81
2022/08/15 03:16:20;;;;;;;4.80;4.33;;;;;;;19.47;79.98;100562.97;5103078;28;20203;-82
2022/08/15 03:18:45;;;;;;;7.40;4.53;;;;;;;19.50;80.00;100557.72;5082523;28;20183;-81
2022/08/15 03:21:18;;;;;;;7.03;4.87;;;;;;;19.54;80.36;100565.44;5116821;28;20195;-81
2022/08/15 03:23:48;;;;;;;5.57;4.60;;;;;;;19.59;80.37;100554.94;5099161;28;20180;-81
2022/08/15 03:26:20;;;;;;;7.00;5.10;;;;;;;19.59;79.74;100557.53;5114984;28;20215;-81
2022/08/15 03:28:46;;;;;;;6.80;4.60;;;;;;;19.67;79.94;100556.47;5116219;28;20164;-83
2022/08/15 03:31:13;;;;;;;8.87;4.83;;;;;;;19.70;79.71;100555.53;5098183;28;20699;-80
2022/08/15 03:33:41;;;;;;;7.97;5.47;;;;;;;19.72;80.09;100554.63;5097855;28;20266;-79
2022/08/15 03:36:08;;;;;;;7.97;5.37;;;;;;;19.73;79.42;100548.56;5081457;28;20204;-82
2022/08/15 03:38:35;;;;;;;5.37;4.63;;;;;;;19.72;80.01;100557.22;5083433;28;20217;-83
2022/08/15 03:41:01;;;;;;;7.17;5.10;;;;;;;19.73;79.32;100550.28;5100379;28;20180;-81
2022/08/15 03:43:29;;;;;;;5.97;4.87;;;;;;;19.73;79.46;100551.16;5100590;28;20188;-80
2022/08/15 03:46:00;;;;;;;7.90;5.00;;;;;;;19.70;79.71;100558.13;5100203;28;20245;-79
2022/08/15 03:48:33;;;;;;;8.00;5.07;;;;;;;19.60;80.10;100548.84;5099255;28;20285;-80
2022/08/15 03:51:01;;;;;;;6.23;4.80;;;;;;;19.52;80.09;100556.81;5098566;28;20264;-81
2022/08/15 03:53:33;;;;;;;5.20;4.70;;;;;;;19.47;80.18;100550.00;5097968;28;20194;-81
2022/08/15 03:56:01;;;;;;;6.80;4.80;;;;;;;19.45;79.68;100551.78;5098591;28;20191;-83
2022/08/15 03:58:31;;;;;;;5.93;5.30;;;;;;;19.40;80.09;100557.06;5081636;28;20190;-79
2022/08/15 04:00:58;;;;;;;6.83;5.33;;;;;;;19.33;80.25;100557.22;5114526;28;20207;-82
2022/08/15 04:03:28;;;;;;;6.00;4.77;;;;;;;19.25;80.38;100556.53;5080557;28;20184;-81
2022/08/15 04:06:00;;;;;;;12.53;5.40;;;;;;;19.26;80.48;100564.28;5115544;28;20742;-82
2022/08/15 04:08:30;;;;;;;6.53;5.17;;;;;;;19.24;80.69;100560.88;5096873;28;20179;-81
2022/08/15 04:11:00;;;;;;;7.77;5.27;;;;;;;19.25;80.95;100562.56;5096376;28;20226;-81
2022/08/15 04:13:27;;;;;;;6.03;5.00;;;;;;;19.21;81.12;100560.06;5097220;28;20741;-81
2022/08/15 04:15:56;;;;;;;6.17;5.43;;;;;;;19.21;80.97;100562.66;5096092;28;20190;-82
2022/08/15 04:18:24;;;;;;;6.37;5.53;;;;;;;19.18;81.34;100560.97;5080089;28;20611;-82
2022/08/15 04:20:51;;;;;;;9.90;7.47;;;;;;;19.20;81.53;100561.78;5097020;28;20247;-82
2022/08/15 04:23:17;;;;;;;5.90;5.40;;;;;;;19.17;81.04;100561.81;5097161;28;20213;-80
2022/08/15 04:25:43;;;;;;;7.17;5.77;;;;;;;19.15;81.14;100566.22;5096437;28;20208;-81
2022/08/15 04:28:14;;;;;;;9.33;5.83;;;;;;;19.16;81.19;100572.28;5080793;28;20636;-83
2022/08/15 04:30:43;;;;;;;7.93;5.73;;;;;;;19.17;81.38;100561.81;5098926;28;20270;-83
2022/08/15 04:33:08;;;;;;;6.80;6.10;;;;;;;19.12;82.05;100561.06;5099285;28;20593;-84
2022/08/15 04:35:35;;;;;;;8.07;5.87;;;;;;;19.10;81.39;100549.00;5080863;28;20206;-83
2022/08/15 04:38:01;;;;;;;7.10;5.67;;;;;;;19.15;80.99;100550.63;5082692;28;20689;-83
2022/08/15 04:40:28;;;;;;;6.63;5.77;;;;;;;19.12;81.12;100552.44;5098866;28;20180;-81
2022/08/15 04:42:58;;;;;;;8.60;6.00;;;;;;;19.14;81.00;100554.13;5097115;28;20237;-81
2022/08/15 04:45:30;;;;;;;7.23;5.63;;;;;;;19.17;80.76;100555.81;5081088;28;20242;-82
2022/08/15 04:47:57;;;;;;;6.47;5.27;;;;;;;19.12;80.90;100558.47;5082361;28;20202;-84
2022/08/15 04:50:23;;;;;;;6.97;5.87;;;;;;;19.17;80.98;100550.59;5118475;28;20203;-81
2022/08/15 04:52:54;;;;;;;8.73;5.50;;;;;;;19.22;80.33;100547.06;5117370;28;20176;-81
2022/08/15 04:55:25;;;;;;;9.30;5.60;;;;;;;19.23;80.91;100540.13;5084437;28;20175;-80
2022/08/15 04:57:52;;;;;;;8.40;6.13;;;;;;;19.27;80.71;100547.84;5098487;28;20705;-80
2022/08/15 05:00:22;;;;;;;8.30;6.07;;;;;;;19.34;80.66;100540.78;5117005;28;20183;-81
2022/08/15 05:03:13;;;;;;;8.93;6.23;;;;;;;19.46;81.04;100540.50;5101437;28;20232;-81
2022/08/15 05:05:45;;;;;;;6.53;5.93;;;;;;;19.49;81.02;100537.84;5101026;28;20265;-82
2022/08/15 05:08:13;;;;;;;7.43;6.07;;;;;;;19.60;80.82;100544.50;5101953;28;20178;-82
2022/08/15 05:10:39;;;;;;;9.87;6.03;;;;;;;19.64;80.55;100537.50;5102361;28;20186;-82
2022/08/15 05:13:11;;;;;;;8.00;6.03;;;;;;;19.72;80.85;100535.59;5102579;28;20586;-82
2022/08/15 05:15:40;;;;;;;6.47;5.80;;;;;;;19.83;80.63;100541.38;5085620;28;20195;-83
2022/08/15 05:18:06;;;;;;;8.87;5.77;;;;;;;19.93;80.45;100538.53;5094943;28;20242;-81
2022/08/15 05:20:31;;;;;;;12.23;6.73;;;;;;;19.99;80.34;100535.78;5101093;28;20180;-82
2022/08/15 05:23:04;;;;;;;7.00;5.20;;;;;;;20.10;80.06;100531.22;5085462;28;20182;-82
2022/08/15 05:25:39;;;;;;;13.90;5.80;;;;;;;20.23;79.99;100534.38;5119513;28;20207;-83
2022/08/15 05:28:06;;;;;;;8.87;6.33;;;;;;;20.37;79.16;100529.69;5121932;28;20859;-82
2022/08/15 05:30:32;;;;;;;8.70;5.80;;;;;;;20.51;78.56;100535.41;5120290;28;20179;-82
2022/08/15 05:33:02;;;;;;;6.73;6.03;;;;;;;20.65;77.86;100526.34;5102938;28;20183;-82
2022/08/15 05:35:29;;;;;;;7.43;5.50;;;;;;;20.75;77.27;100529.53;5120736;28;20180;-79
2022/08/15 05:37:57;;;;;;;9.87;5.90;;;;;;;20.83;77.16;100527.59;5104735;28;20215;-82
2022/08/15 05:40:22;;;;;;;13.13;5.80;;;;;;;20.93;77.01;100519.53;5120719;28;20222;-82
2022/08/15 05:43:05;;;;;;;5.80;5.30;;;;;;;21.07;76.78;100529.53;5093694;28;20653;-83
2022/08/15 05:45:39;;;;;;;8.73;5.70;;;;;;;21.22;76.10;100531.69;5102461;28;20693;-83
2022/08/15 05:48:18;;;;;;;6.07;5.20;;;;;;;21.36;75.72;100529.53;5103362;28;20284;-81
2022/08/15 05:50:49;;;;;;;10.23;6.10;;;;;;;21.47;74.56;100524.88;5120125;28;20220;-81
2022/08/15 05:53:36;;;;;;;8.67;5.90;;;;;;;21.59;74.38;100520.16;5121450;28;20171;-84
2022/08/15 05:57:00;;;;;;;7.70;6.00;;;;;;;21.79;73.93;100519.56;5107426;28;20191;-83
2022/08/15 05:59:40;;;;;;;6.50;5.77;;;;;;;21.95;73.39;100523.38;5061774;28;20251;-83
2022/08/15 06:02:35;;;;;;;10.27;5.77;;;;;;;22.13;72.74;100514.97;5105739;28;20183;-83
2022/08/15 06:05:10;;;;;;;10.33;6.67;;;;;;;22.27;71.92;100507.53;5099615;28;20231;-82
2022/08/15 06:07:37;;;;;;;8.67;5.90;;;;;;;22.40;71.84;100514.03;5121290;28;20208;-83
2022/08/15 06:10:23;;;;;;;7.57;6.23;;;;;;;22.54;71.14;100511.84;5086653;28;20271;-82
2022/08/15 06:12:50;;;;;;;9.67;6.00;;;;;;;22.67;70.33;100517.50;5120531;28;20225;-81
2022/08/15 06:15:25;;;;;;;9.63;6.53;;;;;;;22.82;70.38;100511.72;5120220;28;20180;-82
2022/08/15 06:18:01;;;;;;;8.50;6.27;;;;;;;22.98;69.70;100505.88;5116927;28;20207;-84
2022/08/15 06:20:47;;;;;;;10.27;6.40;;;;;;;23.12;69.48;100498.41;5103813;28;20236;-80
2022/08/15 06:23:18;;;;;;;8.47;6.23;;;;;;;23.26;68.81;100503.16;5120157;28;20513;-81
2022/08/15 06:26:06;;;;;;;10.53;6.70;;;;;;;23.37;68.36;100500.97;5103098;28;20214;-81
2022/08/15 06:28:46;;;;;;;8.83;6.40;;;;;;;23.58;68.23;100495.75;5122191;28;20795;-81
2022/08/15 06:31:30;;;;;;;7.97;7.17;;;;;;;23.60;67.96;100493.94;5104259;28;20191;-84
2022/08/15 06:34:09;;;;;;;8.30;6.70;;;;;;;23.87;66.85;100497.22;5118193;28;20180;-83
2022/08/15 06:37:06;;;;;;;8.00;6.20;;;;;;;24.05;66.53;100491.28;5115639;28;20200;-82
2022/08/15 06:39:50;;;;;;;8.52;5.85;;;;;;;24.22;65.80;100494.06;5061725;28;20689;-81
2022/08/15 06:42:34;;;;;;;10.27;6.37;;;;;;;24.42;64.77;100487.06;5098912;28;20191;-82
2022/08/15 06:45:08;;;;;;;12.27;7.30;;;;;;;24.55;64.31;100487.38;5098101;28;20214;-82
2022/08/15 06:47:34;;;;;;;9.03;7.13;;;;;;;24.55;64.04;100485.63;5086390;28;20203;-81
2022/08/15 06:50:11;;;;;;;8.30;7.38;;;;;;;24.72;63.40;100488.38;5114264;28;20183;-82
2022/08/15 06:52:39;;;;;;;9.17;6.40;;;;;;;24.88;62.23;100496.41;5081316;28;20645;-82
2022/08/15 06:55:05;;;;;;;8.20;7.20;;;;;;;25.01;62.53;100492.31;5096135;28;20172;-81
2022/08/15 06:57:47;;;;;;;9.90;7.25;;;;;;;25.19;62.13;100496.72;5084881;28;20555;-82
2022/08/15 07:00:37;;;;;;;8.60;7.63;;;;;;;25.20;61.54;100485.31;5077909;28;20192;-82
2022/08/15 07:03:30;;;;;;;8.80;7.05;;;;;;;25.48;61.67;100486.63;5077056;28;20207;-82
2022/08/15 07:05:57;;;;;;;8.68;7.47;;;;;;;25.44;60.47;100484.19;5059515;28;20258;-81
2022/08/15 07:08:43;;;;;;;9.57;7.18;;;;;;;25.76;60.68;100471.25;5076351;28;20188;-83
2022/08/15 07:11:11;;;;;;;9.02;7.65;;;;;;;25.85;59.97;100472.56;5076678;28;20210;-84
2022/08/15 07:14:06;;;;;;;9.68;7.57;;;;;;;25.94;59.34;100480.91;5076715;28;20269;-84
2022/08/15 07:16:43;;;;;;;10.57;7.03;;;;;;;26.35;60.27;100477.06;5038106;28;21014;-80
2022/08/15 07:19:10;;;;;;;9.77;7.75;;;;;;;26.34;58.27;100469.25;5079659;28;20176;-81
2022/08/15 07:21:43;;;;;;;8.25;7.45;;;;;;;26.44;58.13;100473.09;5099455;28;20676;-82
2022/08/15 07:24:17;;;;;;;11.45;7.65;;;;;;;26.58;57.44;100468.88;5064828;28;20180;-82
2022/08/15 07:26:46;;;;;;;8.32;7.32;;;;;;;26.71;57.26;100459.38;5082362;28;20216;-82
2022/08/15 07:29:27;;;;;;;8.75;7.85;;;;;;;26.75;56.55;100462.72;5082911;28;20673;-82
2022/08/15 07:32:25;;;;;;;9.85;7.15;;;;;;;26.91;55.70;100463.59;5081482;28;20194;-83
2022/08/15 07:35:05;;;;;;;8.57;7.63;;;;;;;27.08;55.41;100466.19;5080006;28;20217;-83
2022/08/15 07:37:34;;;;;;;10.07;7.70;;;;;;;27.14;55.58;100465.84;5061539;28;20203;-82
2022/08/15 07:40:26;;;;;;;12.65;7.95;;;;;;;27.19;54.67;100463.84;5061696;28;20196;-82
2022/08/15 07:42:52;;;;;;;9.27;7.50;;;;;;;27.24;55.07;100467.91;5059983;28;20192;-83
2022/08/15 07:45:34;;;;;;;8.57;7.70;;;;;;;27.77;54.99;100465.75;5077453;28;20592;-81
2022/08/15 07:48:23;;;;;;;8.82;7.40;;;;;;;28.12;54.40;100461.13;5094361;28;20700;-84
2022/08/15 07:51:14;;;;;;;8.68;7.18;;;;;;;27.86;53.43;100461.81;5093630;28;20684;-81
2022/08/15 07:53:53;;;;;;;8.50;7.65;;;;;;;27.88;52.53;100462.53;5060812;28;20532;-82
2022/08/15 07:56:19;;;;;;;8.70;7.82;;;;;;;28.11;53.30;100462.06;5094540;28;20239;-82
2022/08/15 07:58:45;;;;;;;10.15;8.00;;;;;;;28.35;52.15;100461.47;5095728;28;20180;-82
2022/08/15 08:01:28;;;;;;;10.10;7.38;;;;;;;28.46;51.38;100458.22;5094483;28;20664;-84
2022/08/15 08:04:11;;;;;;;10.93;7.70;;;;;;;28.41;51.20;100453.22;5076432;28;20173;-84
2022/08/15 08:06:47;;;;;;;9.50;7.90;;;;;;;28.58;50.84;100458.31;5063208;28;20236;-82
2022/08/15 08:09:29;;;;;;;8.65;7.82;;;;;;;28.86;51.22;100460.13;5069090;28;20192;-83
2022/08/15 08:12:20;;;;;;;11.20;7.95;;;;;;;28.91;50.38;100450.13;5077381;28;20169;-83
2022/08/15 08:15:36;;;;;;;11.18;7.70;;;;;;;28.87;50.11;100453.91;5048690;28;20204;-83
2022/08/15 08:18:06;;;;;;;10.13;8.52;;;;;;;29.05;49.95;100451.00;5015710;28;20222;-83
2022/08/15 08:20:42;;;;;;;8.48;7.70;;;;;;;29.40;49.43;100449.63;5032461;28;20200;-83
2022/08/15 08:23:44;;;;;;;8.75;7.95;;;;;;;29.46;49.43;100448.34;5055115;28;20566;-82
2022/08/15 08:26:16;;;;;;;8.73;7.93;;;;;;;29.57;49.10;100454.69;5068353;28;20269;-82
2022/08/15 08:28:55;;;;;;;8.93;8.13;;;;;;;29.58;48.85;100450.25;5072173;28;20630;-81
2022/08/15 08:31:46;;;;;;;10.52;8.23;;;;;;;29.50;48.13;100457.78;5076905;28;20584;-82
2022/08/15 08:34:36;;;;;;;11.30;8.80;;;;;;;29.52;47.67;100469.09;5096059;28;20254;-82
2022/08/15 08:37:10;;;;;;;10.73;7.50;;;;;;;29.78;47.95;100449.78;5077627;28;20674;-82
2022/08/15 08:39:51;;;;;;;12.02;8.35;;;;;;;29.93;47.23;100443.53;5098747;28;20200;-82
2022/08/15 08:42:33;;;;;;;8.27;7.57;;;;;;;29.88;48.27;100451.72;5084070;28;20192;-82
2022/08/15 08:45:05;;;;;;;8.73;7.82;;;;;;;30.08;47.25;100453.06;5105602;28;20314;-83
2022/08/15 08:48:10;;;;;;;9.98;8.48;;;;;;;30.10;48.01;100456.44;5108735;28;20200;-84
2022/08/15 08:51:05;;;;;;;11.13;9.07;;;;;;;30.39;47.61;100449.22;5073283;28;20316;-84
2022/08/15 08:53:59;;;;;;;8.85;8.05;;;;;;;30.28;46.95;100449.09;5080699;28;20185;-82
2022/08/15 08:56:33;;;;;;;10.25;7.60;;;;;;;30.76;45.99;100448.41;5112049;28;20275;-83
2022/08/15 08:59:23;;;;;;;10.40;8.45;;;;;;;30.58;46.47;100445.22;5076048;28;20216;-83
2022/08/15 09:01:58;;;;;;;8.93;7.70;;;;;;;30.79;45.63;100446.38;5101243;28;20175;-82
2022/08/15 09:04:39;;;;;;;9.80;7.63;;;;;;;31.27;44.38;100444.72;5100324;28;20278;-83
2022/08/15 09:07:07;;;;;;;9.65;8.05;;;;;;;31.39;45.04;100443.84;5113551;28;20244;-83
2022/08/15 09:09:39;;;;;;;8.95;8.10;;;;;;;31.56;43.68;100433.72;5112487;28;20251;-84
2022/08/15 09:14:55;;;;;;;9.77;8.27;;;;;;;32.07;42.67;100434.28;5118668;28;20625;-82
2022/08/15 09:17:23;;;;;;;9.65;8.15;;;;;;;32.19;43.75;100428.06;5097451;28;20211;-83
2022/08/15 09:19:54;;;;;;;11.45;7.93;;;;;;;32.68;42.46;100424.19;5099786;28;20200;-83
2022/08/15 09:22:20;;;;;;;14.63;7.75;;;;;;;32.63;41.69;100425.50;5116403;28;20176;-82
2022/08/15 09:24:45;;;;;;;8.73;7.72;;;;;;;32.79;41.57;100428.69;5100271;28;20192;-82
2022/08/15 09:27:23;;;;;;;8.65;7.93;;;;;;;32.36;41.73;100425.00;5096344;28;20589;-84
2022/08/15 09:30:02;;;;;;;10.73;8.00;;;;;;;32.80;41.98;100430.38;5116833;28;20212;-83
2022/08/15 09:32:27;;;;;;;8.60;7.50;;;;;;;32.55;41.45;100428.75;5099037;28;20623;-83
2022/08/15 09:35:27;;;;;;;9.48;8.07;;;;;;;32.90;41.31;100423.34;5101462;28;20263;-82
2022/08/15 09:38:00;;;;;;;9.20;7.63;;;;;;;33.21;39.63;100423.47;5099407;28;20697;-84
2022/08/15 09:40:45;;;;;;;8.50;7.70;;;;;;;33.05;39.55;100414.19;5100652;28;20187;-82
2022/08/15 09:43:25;;;;;;;11.20;8.10;;;;;;;33.32;40.57;100417.28;5100940;28;20714;-83
2022/08/15 09:46:09;;;;;;;8.52;7.72;;;;;;;33.67;40.01;100408.13;5098738;28;20212;-83
2022/08/15 09:48:56;;;;;;;10.07;7.95;;;;;;;33.89;40.10;100409.88;5098864;28;20220;-85
2022/08/15 09:51:47;;;;;;;11.80;8.45;;;;;;;34.18;38.71;100403.78;5098895;28;20240;-84
2022/08/15 09:54:23;;;;;;;8.82;7.82;;;;;;;34.11;38.04;100409.75;5099133;28;20195;-83
2022/08/15 09:56:50;;;;;;;12.43;8.05;;;;;;;33.99;37.81;100398.34;5115708;28;20756;-84
2022/08/15 10:11:40;;;;;;;9.48;7.68;;;;;;;34.57;35.95;100386.25;5127158;27;20589;-79
2022/08/15 10:14:39;;;;;;;12.57;7.45;;;;;;;34.54;36.30;100400.63;5123048;28;20282;-77
2022/08/15 10:17:43;;;;;;;8.27;7.22;;;;;;;34.67;35.60;100385.28;5124470;28;20291;-76
2022/08/15 10:20:21;;;;;;;9.02;7.55;;;;;;;35.17;34.98;100388.84;5112411;28;20347;-77
2022/08/15 10:23:04;;;;;;;10.18;7.28;;;;;;;35.19;35.42;100386.88;5105775;28;20744;-77
2022/08/15 10:25:35;;;;;;;8.40;7.05;;;;;;;35.10;35.10;100385.88;5105089;28;20519;-77
2022/08/15 10:28:13;;;;;;;8.27;6.95;;;;;;;35.57;34.61;100384.28;5096022;28;20645;-75
2022/08/15 10:31:09;;;;;;;8.20;7.10;;;;;;;35.69;34.36;100380.50;5067995;28;20169;-76
2022/08/15 10:33:44;;;;;;;10.73;7.35;;;;;;;35.67;35.00;100369.97;5061532;28;20220;-76
2022/08/15 10:36:13;;;;;;;8.43;7.10;;;;;;;35.50;34.14;100378.66;5083497;28;20226;-75
2022/08/15 10:38:58;;;;;;;8.13;7.30;;;;;;;35.32;34.46;100376.84;5085214;28;20188;-76
2022/08/15 10:41:24;;;;;;;9.13;7.60;;;;;;;35.69;34.25;100380.50;5087255;28;20754;-76
2022/08/15 10:44:17;;;;;;;7.70;6.90;;;;;;;35.19;34.46;100371.75;5086247;28;20256;-78
2022/08/15 10:47:20;;;;;;;9.52;7.35;;;;;;;35.17;34.68;100367.53;5086553;28;20219;-76
2022/08/15 10:50:08;;;;;;;10.77;8.27;;;;;;;35.29;34.92;100366.44;5083197;28;20194;-76
2022/08/15 10:52:55;;;;;;;11.60;8.25;;;;;;;35.73;34.56;100364.09;5084248;28;20257;-76
2022/08/15 10:55:29;;;;;;;8.60;7.88;;;;;;;36.03;34.81;100361.25;5101258;28;20569;-77
2022/08/15 10:58:17;;;;;;;9.15;8.25;;;;;;;36.28;34.80;100355.28;5083303;28;20184;-77
2022/08/15 11:00:46;;;;;;;9.45;8.10;;;;;;;36.00;34.74;100358.84;5096704;28;20223;-77
2022/08/15 11:03:49;;;;;;;10.45;7.47;;;;;;;36.19;33.60;100358.81;5088977;28;20187;-77
2022/08/15 11:06:18;;;;;;;9.13;8.15;;;;;;;35.64;34.47;100356.06;5052689;28;20223;-77
2022/08/15 11:08:47;;;;;;;8.45;7.65;;;;;;;36.16;33.99;100355.59;5065212;28;20221;-77
2022/08/15 11:11:17;;;;;;;8.55;7.75;;;;;;;36.50;33.43;100359.44;5063900;28;20305;-77
2022/08/15 11:13:50;;;;;;;9.30;8.25;;;;;;;36.22;33.85;100353.22;5052473;28;20647;-77
2022/08/15 11:16:23;;;;;;;9.10;8.10;;;;;;;36.68;33.59;100357.69;5051959;28;20281;-76
2022/08/15 11:18:52;;;;;;;8.68;7.88;;;;;;;36.76;32.53;100352.47;5051804;28;20603;-77
2022/08/15 11:21:52;;;;;;;9.13;8.23;;;;;;;35.83;33.96;100350.75;5033763;28;20209;-76
2022/08/15 11:24:31;;;;;;;8.90;8.10;;;;;;;36.41;33.79;100353.16;5012546;28;20210;-77
2022/08/15 11:27:09;;;;;;;8.88;7.82;;;;;;;36.03;34.51;100349.72;5051960;28;20170;-76
2022/08/15 11:29:35;;;;;;;9.13;8.25;;;;;;;36.53;33.46;100346.66;5051749;28;20188;-76
2022/08/15 11:32:00;;;;;;;9.00;8.10;;;;;;;36.53;33.34;100340.44;5050779;28;20574;-76
2022/08/15 11:34:32;;;;;;;8.65;7.80;;;;;;;36.74;33.55;100338.44;5051743;28;20190;-77
2022/08/15 11:37:03;;;;;;;8.55;7.65;;;;;;;36.15;33.16;100344.06;5051725;28;20193;-75
2022/08/15 11:39:30;;;;;;;8.90;8.00;;;;;;;35.96;33.63;100340.63;5051962;28;20269;-76
2022/08/15 11:42:03;;;;;;;8.73;7.82;;;;;;;36.66;32.70;100338.31;5051358;28;20719;-77
2022/08/15 11:44:45;;;;;;;12.10;7.65;;;;;;;36.50;32.95;100327.38;5050205;28;20182;-75
2022/08/15 11:47:16;;;;;;;8.48;7.60;;;;;;;36.66;32.52;100327.63;5051884;28;20193;-77
2022/08/15 11:49:54;;;;;;;10.75;7.55;;;;;;;36.53;32.75;100340.44;5051701;28;20206;-76
2022/08/15 11:52:24;;;;;;;8.80;7.40;;;;;;;35.54;34.55;100339.25;5051441;28;20201;-76
2022/08/15 11:55:08;;;;;;;8.98;8.25;;;;;;;35.78;33.73;100327.16;5034653;28;20666;-79
2022/08/15 11:57:41;;;;;;;9.45;8.10;;;;;;;36.38;34.41;100325.91;5051089;28;20189;-79
2022/08/15 12:00:22;;;;;;;10.25;8.02;;;;;;;36.72;33.08;100319.03;5071068;28;20204;-78
2022/08/15 12:02:49;;;;;;;8.55;7.75;;;;;;;36.71;32.69;100320.88;5071973;28;20205;-77
2022/08/15 12:05:26;;;;;;;10.40;8.32;;;;;;;36.93;32.68;100312.41;5053353;28;20624;-78
2022/08/15 12:07:57;;;;;;;9.13;7.82;;;;;;;37.04;32.93;100306.03;5071368;28;20181;-77
2022/08/15 12:10:33;;;;;;;9.00;8.10;;;;;;;36.61;33.15;100314.69;5053243;28;20192;-76
2022/08/15 12:13:00;;;;;;;8.70;7.90;;;;;;;36.14;33.99;100301.53;5053932;28;20266;-77
2022/08/15 12:15:31;;;;;;;8.73;7.93;;;;;;;36.10;33.54;100294.81;5071782;28;20185;-78